sensor_id;sensor_type;location;lat;lon;timestamp;pressure;altitude;pressure_sealevel;temperature;humidity
64189;BME280;50493;50.970;10.082;2024-01-30T00:02:08;100684.00;;;1.89;73.25
64189;BME280;50493;50.970;10.082;2024-01-30T00:04:33;100682.84;;;1.81;73.03
64189;BME280;50493;50.970;10.082;2024-01-30T00:06:58;100685.31;;;1.78;73.41
64189;BME280;50493;50.970;10.082;2024-01-30T00:09:24;100677.63;;;1.79;73.35
64189;BME280;50493;50.970;10.082;2024-01-30T00:11:49;100678.50;;;1.80;73.02
64189;BME280;50493;50.970;10.082;2024-01-30T00:14:14;100678.41;;;1.77;72.96
64189;BME280;50493;50.970;10.082;2024-01-30T00:16:41;100676.78;;;1.80;73.11
64189;BME280;50493;50.970;10.082;2024-01-30T00:19:06;100680.88;;;1.74;72.74
64189;BME280;50493;50.970;10.082;2024-01-30T00:21:33;100680.00;;;1.73;72.69
64189;BME280;50493;50.970;10.082;2024-01-30T00:23:58;100683.34;;;1.70;73.02
64189;BME280;50493;50.970;10.082;2024-01-30T00:26:24;100680.75;;;1.70;72.43
64189;BME280;50493;50.970;10.082;2024-01-30T00:28:49;100678.94;;;1.68;72.61
64189;BME280;50493;50.970;10.082;2024-01-30T00:31:15;100680.88;;;1.74;72.60
64189;BME280;50493;50.970;10.082;2024-01-30T00:33:41;100673.63;;;1.63;72.90
64189;BME280;50493;50.970;10.082;2024-01-30T00:36:08;100671.97;;;1.65;72.60
64189;BME280;50493;50.970;10.082;2024-01-30T00:38:34;100671.88;;;1.62;72.88
64189;BME280;50493;50.970;10.082;2024-01-30T00:40:59;100676.84;;;1.56;73.30
64189;BME280;50493;50.970;10.082;2024-01-30T00:43:24;100672.06;;;1.43;73.25
64189;BME280;50493;50.970;10.082;2024-01-30T00:45:51;100674.81;;;1.25;74.33
64189;BME280;50493;50.970;10.082;2024-01-30T00:48:17;100682.59;;;1.26;74.71
64189;BME280;50493;50.970;10.082;2024-01-30T00:50:44;100675.00;;;1.29;74.55
64189;BME280;50493;50.970;10.082;2024-01-30T00:53:10;100674.41;;;1.36;73.84
64189;BME280;50493;50.970;10.082;2024-01-30T00:55:35;100671.44;;;1.26;74.07
64189;BME280;50493;50.970;10.082;2024-01-30T00:58:01;100672.53;;;1.32;74.06
64189;BME280;50493;50.970;10.082;2024-01-30T01:00:26;100666.06;;;1.44;73.25
64189;BME280;50493;50.970;10.082;2024-01-30T01:02:54;100668.53;;;1.41;73.41
64189;BME280;50493;50.970;10.082;2024-01-30T01:05:20;100662.56;;;1.42;72.57
64189;BME280;50493;50.970;10.082;2024-01-30T01:07:47;100665.91;;;1.39;72.51
64189;BME280;50493;50.970;10.082;2024-01-30T01:10:16;100660.81;;;1.41;73.23
64189;BME280;50493;50.970;10.082;2024-01-30T01:12:42;100660.38;;;1.52;72.46
64189;BME280;50493;50.970;10.082;2024-01-30T01:15:08;100655.88;;;1.47;72.33
64189;BME280;50493;50.970;10.082;2024-01-30T01:17:35;100659.94;;;1.40;72.99
64189;BME280;50493;50.970;10.082;2024-01-30T01:20:00;100658.03;;;1.34;72.98
64189;BME280;50493;50.970;10.082;2024-01-30T01:22:26;100661.38;;;1.32;72.78
64189;BME280;50493;50.970;10.082;2024-01-30T01:24:53;100654.41;;;1.29;73.00
64189;BME280;50493;50.970;10.082;2024-01-30T01:27:18;100655.69;;;1.18;73.75
64189;BME280;50493;50.970;10.082;2024-01-30T01:29:43;100652.53;;;1.25;73.56
64189;BME280;50493;50.970;10.082;2024-01-30T01:32:09;100657.06;;;1.32;72.88
64189;BME280;50493;50.970;10.082;2024-01-30T01:34:34;100658.59;;;1.27;72.51
64189;BME280;50493;50.970;10.082;2024-01-30T01:36:59;100664.00;;;1.33;72.49
64189;BME280;50493;50.970;10.082;2024-01-30T01:39:25;100660.59;;;1.34;72.22
64189;BME280;50493;50.970;10.082;2024-01-30T01:41:51;100656.06;;;1.29;72.26
64189;BME280;50493;50.970;10.082;2024-01-30T01:44:17;100668.47;;;1.15;73.04
64189;BME280;50493;50.970;10.082;2024-01-30T01:46:42;100667.69;;;1.17;72.82
64189;BME280;50493;50.970;10.082;2024-01-30T01:49:08;100657.06;;;1.32;71.87
64189;BME280;50493;50.970;10.082;2024-01-30T01:51:35;100663.69;;;1.26;72.17
64189;BME280;50493;50.970;10.082;2024-01-30T01:54:03;100665.63;;;1.31;71.91
64189;BME280;50493;50.970;10.082;2024-01-30T01:56:29;100658.50;;;1.24;71.86
64189;BME280;50493;50.970;10.082;2024-01-30T01:59:00;100659.16;;;1.18;72.84
64189;BME280;50493;50.970;10.082;2024-01-30T02:01:26;100654.22;;;1.25;71.82
64189;BME280;50493;50.970;10.082;2024-01-30T02:03:52;100655.91;;;1.24;72.00
64189;BME280;50493;50.970;10.082;2024-01-30T02:06:18;100651.63;;;1.25;72.01
64189;BME280;50493;50.970;10.082;2024-01-30T02:08:44;100654.53;;;1.10;71.98
64189;BME280;50493;50.970;10.082;2024-01-30T02:11:10;100650.13;;;1.07;72.36
64189;BME280;50493;50.970;10.082;2024-01-30T02:13:36;100656.38;;;1.14;71.62
64189;BME280;50493;50.970;10.082;2024-01-30T02:16:03;100652.41;;;1.22;71.37
64189;BME280;50493;50.970;10.082;2024-01-30T02:18:29;100658.06;;;1.12;72.03
64189;BME280;50493;50.970;10.082;2024-01-30T02:20:58;100654.41;;;1.07;72.35
64189;BME280;50493;50.970;10.082;2024-01-30T02:23:28;100655.69;;;1.18;71.83
64189;BME280;50493;50.970;10.082;2024-01-30T02:25:53;100652.34;;;1.20;71.14
64189;BME280;50493;50.970;10.082;2024-01-30T02:28:19;100653.28;;;1.22;70.76
64189;BME280;50493;50.970;10.082;2024-01-30T02:30:45;100650.28;;;1.10;71.84
64189;BME280;50493;50.970;10.082;2024-01-30T02:33:11;100657.69;;;1.02;72.34
64189;BME280;50493;50.970;10.082;2024-01-30T02:35:36;100662.97;;;1.05;72.10
64189;BME280;50493;50.970;10.082;2024-01-30T02:38:02;100657.41;;;1.17;70.76
64189;BME280;50493;50.970;10.082;2024-01-30T02:40:28;100663.09;;;1.09;71.22
64189;BME280;50493;50.970;10.082;2024-01-30T02:42:54;100650.88;;;1.04;71.88
64189;BME280;50493;50.970;10.082;2024-01-30T02:45:19;100649.88;;;0.99;72.08
64189;BME280;50493;50.970;10.082;2024-01-30T02:47:45;100644.81;;;1.02;72.32
64189;BME280;50493;50.970;10.082;2024-01-30T02:50:10;100643.31;;;1.08;71.20
64189;BME280;50493;50.970;10.082;2024-01-30T02:52:36;100645.75;;;1.04;71.57
64189;BME280;50493;50.970;10.082;2024-01-30T02:55:01;100636.16;;;1.00;71.46
64189;BME280;50493;50.970;10.082;2024-01-30T02:57:28;100635.69;;;1.11;71.03
64189;BME280;50493;50.970;10.082;2024-01-30T02:59:53;100632.75;;;1.01;71.05
64189;BME280;50493;50.970;10.082;2024-01-30T03:02:19;100631.84;;;0.99;71.25
64189;BME280;50493;50.970;10.082;2024-01-30T03:04:44;100627.31;;;0.94;71.68
64189;BME280;50493;50.970;10.082;2024-01-30T03:07:09;100624.69;;;0.92;71.56
64189;BME280;50493;50.970;10.082;2024-01-30T03:09:36;100628.97;;;0.92;71.91
64189;BME280;50493;50.970;10.082;2024-01-30T03:12:01;100627.75;;;0.82;71.89
64189;BME280;50493;50.970;10.082;2024-01-30T03:14:29;100625.44;;;0.90;71.26
64189;BME280;50493;50.970;10.082;2024-01-30T03:16:54;100620.00;;;1.04;70.07
64189;BME280;50493;50.970;10.082;2024-01-30T03:19:20;100621.09;;;0.87;71.04
64189;BME280;50493;50.970;10.082;2024-01-30T03:21:45;100619.91;;;0.79;71.80
64189;BME280;50493;50.970;10.082;2024-01-30T03:24:10;100618.13;;;0.76;72.24
64189;BME280;50493;50.970;10.082;2024-01-30T03:26:36;100618.13;;;0.76;71.71
64189;BME280;50493;50.970;10.082;2024-01-30T03:29:01;100620.59;;;0.75;71.95
64189;BME280;50493;50.970;10.082;2024-01-30T03:31:28;100617.09;;;0.73;71.18
64189;BME280;50493;50.970;10.082;2024-01-30T03:33:53;100609.34;;;0.71;71.00
64189;BME280;50493;50.970;10.082;2024-01-30T03:36:19;100609.72;;;0.59;72.32
64189;BME280;50493;50.970;10.082;2024-01-30T03:38:45;100615.69;;;0.58;71.79
64189;BME280;50493;50.970;10.082;2024-01-30T03:41:10;100616.16;;;0.70;71.77
64189;BME280;50493;50.970;10.082;2024-01-30T03:43:36;100620.31;;;0.67;71.15
64189;BME280;50493;50.970;10.082;2024-01-30T03:46:01;100616.84;;;0.66;71.46
64189;BME280;50493;50.970;10.082;2024-01-30T03:48:29;100616.63;;;0.60;71.61
64189;BME280;50493;50.970;10.082;2024-01-30T03:50:54;100616.63;;;0.60;72.17
64189;BME280;50493;50.970;10.082;2024-01-30T03:53:20;100616.28;;;0.51;71.75
64189;BME280;50493;50.970;10.082;2024-01-30T03:55:45;100613.22;;;0.61;71.23
64189;BME280;50493;50.970;10.082;2024-01-30T03:58:10;100611.25;;;0.54;71.95
64189;BME280;50493;50.970;10.082;2024-01-30T04:00:36;100618.16;;;0.55;71.69
64189;BME280;50493;50.970;10.082;2024-01-30T04:03:01;100608.38;;;0.46;72.44
64189;BME280;50493;50.970;10.082;2024-01-30T04:05:28;100608.66;;;0.54;71.15
64189;BME280;50493;50.970;10.082;2024-01-30T04:07:53;100609.69;;;0.58;71.58
64189;BME280;50493;50.970;10.082;2024-01-30T04:10:19;100604.28;;;0.51;71.41
64189;BME280;50493;50.970;10.082;2024-01-30T04:12:44;100606.69;;;0.47;71.23
64189;BME280;50493;50.970;10.082;2024-01-30T04:15:10;100601.50;;;0.45;71.33
64189;BME280;50493;50.970;10.082;2024-01-30T04:17:35;100599.72;;;0.44;71.78
64189;BME280;50493;50.970;10.082;2024-01-30T04:20:00;100599.47;;;0.38;71.53
64189;BME280;50493;50.970;10.082;2024-01-30T04:22:27;100598.50;;;0.34;72.03
64189;BME280;50493;50.970;10.082;2024-01-30T04:24:52;100605.97;;;0.28;72.18
64189;BME280;50493;50.970;10.082;2024-01-30T04:27:18;100602.38;;;0.25;72.38
64189;BME280;50493;50.970;10.082;2024-01-30T04:29:43;100599.75;;;0.23;72.28
64189;BME280;50493;50.970;10.082;2024-01-30T04:32:09;100604.88;;;0.23;72.21
64189;BME280;50493;50.970;10.082;2024-01-30T04:34:35;100601.75;;;0.30;71.50
64189;BME280;50493;50.970;10.082;2024-01-30T04:37:01;100601.63;;;0.27;71.39
64189;BME280;50493;50.970;10.082;2024-01-30T04:39:27;100604.88;;;0.23;71.82
64189;BME280;50493;50.970;10.082;2024-01-30T04:41:53;100600.81;;;0.28;71.25
64189;BME280;50493;50.970;10.082;2024-01-30T04:44:18;100603.66;;;0.13;71.95
64189;BME280;50493;50.970;10.082;2024-01-30T04:46:44;100604.91;;;0.02;72.63
64189;BME280;50493;50.970;10.082;2024-01-30T04:49:10;100594.88;;;0.08;72.20
64189;BME280;50493;50.970;10.082;2024-01-30T04:51:36;100610.78;;;0.20;71.48
64189;BME280;50493;50.970;10.082;2024-01-30T04:54:01;100598.25;;;0.28;71.49
64189;BME280;50493;50.970;10.082;2024-01-30T04:56:28;100599.63;;;0.20;71.80
64189;BME280;50493;50.970;10.082;2024-01-30T04:58:53;100611.41;;;0.15;72.00
64189;BME280;50493;50.970;10.082;2024-01-30T05:01:18;100598.94;;;0.24;71.15
64189;BME280;50493;50.970;10.082;2024-01-30T05:03:44;100604.66;;;0.17;71.45
64189;BME280;50493;50.970;10.082;2024-01-30T05:06:09;100610.03;;;0.23;71.55
64189;BME280;50493;50.970;10.082;2024-01-30T05:08:34;100610.66;;;0.17;70.85
64189;BME280;50493;50.970;10.082;2024-01-30T05:11:05;100613.31;;;0.19;71.22
64189;BME280;50493;50.970;10.082;2024-01-30T05:13:32;100610.03;;;0.23;70.46
64189;BME280;50493;50.970;10.082;2024-01-30T05:15:57;100610.94;;;0.24;71.28
64189;BME280;50493;50.970;10.082;2024-01-30T05:18:23;100619.69;;;0.29;70.81
64189;BME280;50493;50.970;10.082;2024-01-30T05:20:49;100610.78;;;0.20;70.93
64189;BME280;50493;50.970;10.082;2024-01-30T05:23:14;100615.19;;;0.23;70.61
64189;BME280;50493;50.970;10.082;2024-01-30T05:25:40;100621.72;;;0.15;70.89
64189;BME280;50493;50.970;10.082;2024-01-30T05:28:05;100616.56;;;0.15;71.16
64189;BME280;50493;50.970;10.082;2024-01-30T05:30:32;100616.44;;;0.12;71.27
64189;BME280;50493;50.970;10.082;2024-01-30T05:32:57;100619.81;;;0.11;70.90
64189;BME280;50493;50.970;10.082;2024-01-30T05:35:23;100622.97;;;0.03;70.98
64189;BME280;50493;50.970;10.082;2024-01-30T05:37:48;100619.78;;;0.09;70.76
64189;BME280;50493;50.970;10.082;2024-01-30T05:40:14;100621.31;;;0.06;70.44
64189;BME280;50493;50.970;10.082;2024-01-30T05:42:40;100624.06;;;0.09;70.57
64189;BME280;50493;50.970;10.082;2024-01-30T05:45:05;100620.63;;;0.10;70.94
64189;BME280;50493;50.970;10.082;2024-01-30T05:47:32;100632.56;;;0.08;70.51
64189;BME280;50493;50.970;10.082;2024-01-30T05:49:57;100627.47;;;0.09;70.54
64189;BME280;50493;50.970;10.082;2024-01-30T05:52:23;100628.19;;;0.05;70.93
64189;BME280;50493;50.970;10.082;2024-01-30T05:54:48;100625.34;;;-0.01;70.27
64189;BME280;50493;50.970;10.082;2024-01-30T05:57:13;100627.09;;;-0.21;71.26
64189;BME280;50493;50.970;10.082;2024-01-30T05:59:39;100624.34;;;-0.05;70.56
64189;BME280;50493;50.970;10.082;2024-01-30T06:02:04;100623.59;;;-0.02;70.48
64189;BME280;50493;50.970;10.082;2024-01-30T06:04:31;100625.84;;;-0.10;70.99
64189;BME280;50493;50.970;10.082;2024-01-30T06:06:56;100623.22;;;-0.11;71.11
64189;BME280;50493;50.970;10.082;2024-01-30T06:09:21;100625.03;;;-0.09;70.49
64189;BME280;50493;50.970;10.082;2024-01-30T06:11:47;100631.75;;;-0.13;71.10
64189;BME280;50493;50.970;10.082;2024-01-30T06:14:12;100625.59;;;-0.16;71.19
64189;BME280;50493;50.970;10.082;2024-01-30T06:16:38;100628.38;;;-0.11;71.02
64189;BME280;50493;50.970;10.082;2024-01-30T06:19:03;100627.97;;;-0.21;71.09
64189;BME280;50493;50.970;10.082;2024-01-30T06:21:30;100626.59;;;-0.13;67.85
64189;BME280;50493;50.970;10.082;2024-01-30T06:23:56;100625.88;;;-0.30;68.07
64189;BME280;50493;50.970;10.082;2024-01-30T06:26:22;100627.47;;;-0.33;68.85
64189;BME280;50493;50.970;10.082;2024-01-30T06:28:47;100621.44;;;-0.34;68.96
64189;BME280;50493;50.970;10.082;2024-01-30T06:31:12;100622.78;;;-0.22;68.83
64189;BME280;50493;50.970;10.082;2024-01-30T06:33:38;100624.09;;;-0.11;68.19
64189;BME280;50493;50.970;10.082;2024-01-30T06:36:03;100615.31;;;-0.16;69.14
64189;BME280;50493;50.970;10.082;2024-01-30T06:38:30;100614.56;;;-0.14;68.84
64189;BME280;50493;50.970;10.082;2024-01-30T06:40:56;100618.09;;;-0.11;68.91
64189;BME280;50493;50.970;10.082;2024-01-30T06:43:22;100618.03;;;-0.13;68.33
64189;BME280;50493;50.970;10.082;2024-01-30T06:45:47;100623.84;;;-0.17;69.12
64189;BME280;50493;50.970;10.082;2024-01-30T06:48:12;100619.53;;;-0.18;69.47
64189;BME280;50493;50.970;10.082;2024-01-30T06:50:37;100621.06;;;-0.22;69.42
64189;BME280;50493;50.970;10.082;2024-01-30T06:53:03;100625.72;;;-0.13;69.04
64189;BME280;50493;50.970;10.082;2024-01-30T06:55:30;100629.00;;;-0.37;69.93
64189;BME280;50493;50.970;10.082;2024-01-30T06:57:55;100625.47;;;-0.19;69.18
64189;BME280;50493;50.970;10.082;2024-01-30T07:00:21;100628.84;;;-0.20;69.12
64189;BME280;50493;50.970;10.082;2024-01-30T07:02:47;100632.72;;;-0.30;69.76
64189;BME280;50493;50.970;10.082;2024-01-30T07:05:13;100625.41;;;-0.21;68.61
64189;BME280;50493;50.970;10.082;2024-01-30T07:07:39;100635.34;;;-0.28;69.54
64189;BME280;50493;50.970;10.082;2024-01-30T07:10:06;100629.22;;;-0.32;69.26
64189;BME280;50493;50.970;10.082;2024-01-30T07:12:33;100628.59;;;-0.26;68.64
64189;BME280;50493;50.970;10.082;2024-01-30T07:14:58;100632.91;;;-0.25;68.75
64189;BME280;50493;50.970;10.082;2024-01-30T07:17:25;100623.28;;;-0.10;68.43
64189;BME280;50493;50.970;10.082;2024-01-30T07:19:50;100623.66;;;-0.01;67.73
64189;BME280;50493;50.970;10.082;2024-01-30T07:22:15;100624.59;;;-0.20;68.79
64189;BME280;50493;50.970;10.082;2024-01-30T07:24:43;100624.22;;;-0.08;68.16
64189;BME280;50493;50.970;10.082;2024-01-30T07:27:10;100629.22;;;-0.11;68.02
64189;BME280;50493;50.970;10.082;2024-01-30T07:29:36;100626.72;;;-0.09;68.39
64189;BME280;50493;50.970;10.082;2024-01-30T07:32:02;100630.66;;;-0.18;68.03
64189;BME280;50493;50.970;10.082;2024-01-30T07:34:27;100629.34;;;-0.08;67.69
64189;BME280;50493;50.970;10.082;2024-01-30T07:36:53;100622.59;;;-0.06;67.74
64189;BME280;50493;50.970;10.082;2024-01-30T07:39:18;100630.13;;;-0.10;68.10
64189;BME280;50493;50.970;10.082;2024-01-30T07:41:43;100627.22;;;0.03;67.18
64189;BME280;50493;50.970;10.082;2024-01-30T07:44:09;100623.97;;;0.07;66.76
64189;BME280;50493;50.970;10.082;2024-01-30T07:46:36;100627.81;;;0.17;66.59
64189;BME280;50493;50.970;10.082;2024-01-30T07:49:01;100622.84;;;0.00;67.26
64189;BME280;50493;50.970;10.082;2024-01-30T07:51:26;100629.78;;;0.03;67.10
64189;BME280;50493;50.970;10.082;2024-01-30T07:53:53;100624.97;;;0.32;65.81
64189;BME280;50493;50.970;10.082;2024-01-30T07:56:19;100624.81;;;0.50;65.72
64189;BME280;50493;50.970;10.082;2024-01-30T07:58:44;100624.91;;;0.53;65.05
64189;BME280;50493;50.970;10.082;2024-01-30T08:01:10;100624.31;;;0.59;64.72
64189;BME280;50493;50.970;10.082;2024-01-30T08:03:36;100617.22;;;0.76;63.82
64189;BME280;50493;50.970;10.082;2024-01-30T08:06:05;100621.09;;;0.64;64.91
64189;BME280;50493;50.970;10.082;2024-01-30T08:08:31;100621.13;;;0.66;64.11
64189;BME280;50493;50.970;10.082;2024-01-30T08:10:57;100625.63;;;0.71;63.55
64189;BME280;50493;50.970;10.082;2024-01-30T08:13:22;100621.91;;;0.86;63.59
64189;BME280;50493;50.970;10.082;2024-01-30T08:15:48;100623.28;;;1.00;62.63
64189;BME280;50493;50.970;10.082;2024-01-30T08:18:13;100618.44;;;1.32;61.97
64189;BME280;50493;50.970;10.082;2024-01-30T08:20:40;100619.03;;;1.25;61.73
64189;BME280;50493;50.970;10.082;2024-01-30T08:23:05;100623.19;;;1.21;61.96
64189;BME280;50493;50.970;10.082;2024-01-30T08:25:30;100621.66;;;1.27;61.99
64189;BME280;50493;50.970;10.082;2024-01-30T08:27:56;100626.06;;;1.29;61.37
64189;BME280;50493;50.970;10.082;2024-01-30T08:30:22;100621.00;;;1.32;61.38
64189;BME280;50493;50.970;10.082;2024-01-30T08:32:47;100624.53;;;1.34;61.61
64189;BME280;50493;50.970;10.082;2024-01-30T08:35:13;100620.38;;;1.64;61.05
64189;BME280;50493;50.970;10.082;2024-01-30T08:37:41;100626.56;;;1.69;60.80
64189;BME280;50493;50.970;10.082;2024-01-30T08:40:08;100617.28;;;2.00;60.81
64189;BME280;50493;50.970;10.082;2024-01-30T08:42:36;100625.47;;;2.14;59.68
64189;BME280;50493;50.970;10.082;2024-01-30T08:45:02;100613.47;;;2.42;60.43
64189;BME280;50493;50.970;10.082;2024-01-30T08:47:29;100613.03;;;2.55;59.90
64189;BME280;50493;50.970;10.082;2024-01-30T08:49:55;100619.91;;;2.56;59.54
64189;BME280;50493;50.970;10.082;2024-01-30T08:52:20;100616.22;;;2.75;59.98
64189;BME280;50493;50.970;10.082;2024-01-30T08:54:47;100614.13;;;2.92;59.48
64189;BME280;50493;50.970;10.082;2024-01-30T08:57:12;100617.03;;;3.03;59.62
64189;BME280;50493;50.970;10.082;2024-01-30T08:59:37;100619.66;;;3.04;58.07
64189;BME280;50493;50.970;10.082;2024-01-30T09:02:03;100620.28;;;3.26;58.65
64189;BME280;50493;50.970;10.082;2024-01-30T09:04:29;100620.59;;;3.38;58.21
64189;BME280;50493;50.970;10.082;2024-01-30T09:06:54;100616.28;;;3.37;57.93
64189;BME280;50493;50.970;10.082;2024-01-30T09:09:20;100621.31;;;3.33;58.88
64189;BME280;50493;50.970;10.082;2024-01-30T09:11:47;100622.28;;;3.36;59.03
64189;BME280;50493;50.970;10.082;2024-01-30T09:14:12;100614.28;;;3.59;57.70
64189;BME280;50493;50.970;10.082;2024-01-30T09:16:37;100624.63;;;3.59;57.42
64189;BME280;50493;50.970;10.082;2024-01-30T09:19:04;100621.25;;;3.62;58.82
64189;BME280;50493;50.970;10.082;2024-01-30T09:21:29;100618.00;;;3.69;58.21
64189;BME280;50493;50.970;10.082;2024-01-30T09:23:54;100625.97;;;3.45;59.14
64189;BME280;50493;50.970;10.082;2024-01-30T09:26:26;100617.38;;;3.46;59.17
64189;BME280;50493;50.970;10.082;2024-01-30T09:28:53;100621.38;;;3.66;58.43
64189;BME280;50493;50.970;10.082;2024-01-30T09:31:18;100627.66;;;3.76;58.29
64189;BME280;50493;50.970;10.082;2024-01-30T09:33:43;100620.84;;;3.80;58.48
64189;BME280;50493;50.970;10.082;2024-01-30T09:36:11;100616.66;;;3.83;57.84
64189;BME280;50493;50.970;10.082;2024-01-30T09:38:40;100622.53;;;3.79;58.52
64189;BME280;50493;50.970;10.082;2024-01-30T09:41:09;100624.81;;;4.00;57.92
64189;BME280;50493;50.970;10.082;2024-01-30T09:43:38;100622.13;;;3.96;58.09
64189;BME280;50493;50.970;10.082;2024-01-30T09:46:05;100630.91;;;4.02;58.37
64189;BME280;50493;50.970;10.082;2024-01-30T09:48:33;100617.22;;;4.06;58.25
64189;BME280;50493;50.970;10.082;2024-01-30T09:50:59;100632.56;;;4.00;57.81
64189;BME280;50493;50.970;10.082;2024-01-30T09:53:25;100630.81;;;3.99;57.91
64189;BME280;50493;50.970;10.082;2024-01-30T09:55:51;100631.75;;;4.01;57.93
64189;BME280;50493;50.970;10.082;2024-01-30T09:58:16;100634.88;;;4.23;58.17
64189;BME280;50493;50.970;10.082;2024-01-30T10:00:42;100635.50;;;4.51;56.69
64189;BME280;50493;50.970;10.082;2024-01-30T10:03:09;100632.31;;;4.63;56.84
64189;BME280;50493;50.970;10.082;2024-01-30T10:05:35;100640.28;;;4.70;56.29
64189;BME280;50493;50.970;10.082;2024-01-30T10:08:06;100641.00;;;4.63;56.39
64189;BME280;50493;50.970;10.082;2024-01-30T10:10:31;100640.84;;;4.57;57.47
64189;BME280;50493;50.970;10.082;2024-01-30T10:12:56;100638.31;;;4.60;57.74
64189;BME280;50493;50.970;10.082;2024-01-30T10:15:22;100640.63;;;4.48;57.90
64189;BME280;50493;50.970;10.082;2024-01-30T10:17:47;100638.72;;;4.40;59.02
64189;BME280;50493;50.970;10.082;2024-01-30T10:20:14;100636.94;;;4.38;58.70
64189;BME280;50493;50.970;10.082;2024-01-30T10:22:40;100643.31;;;4.16;59.00
64189;BME280;50493;50.970;10.082;2024-01-30T10:25:06;100633.56;;;4.05;59.13
64189;BME280;50493;50.970;10.082;2024-01-30T10:27:32;100638.97;;;4.15;59.16
64189;BME280;50493;50.970;10.082;2024-01-30T10:29:58;100643.22;;;4.13;58.92
64189;BME280;50493;50.970;10.082;2024-01-30T10:32:23;100634.91;;;4.24;58.43
64189;BME280;50493;50.970;10.082;2024-01-30T10:34:48;100636.00;;;4.36;57.01
64189;BME280;50493;50.970;10.082;2024-01-30T10:37:16;100627.31;;;4.70;57.86
64189;BME280;50493;50.970;10.082;2024-01-30T10:39:43;100622.16;;;4.70;57.00
64189;BME280;50493;50.970;10.082;2024-01-30T10:42:12;100616.75;;;5.02;56.08
64189;BME280;50493;50.970;10.082;2024-01-30T10:44:44;100616.16;;;5.16;55.26
64189;BME280;50493;50.970;10.082;2024-01-30T10:47:12;100609.53;;;5.30;53.93
64189;BME280;50493;50.970;10.082;2024-01-30T10:49:41;100607.22;;;5.44;56.43
64189;BME280;50493;50.970;10.082;2024-01-30T10:52:09;100608.88;;;5.39;52.18
64189;BME280;50493;50.970;10.082;2024-01-30T10:54:37;100609.25;;;5.59;54.86
64189;BME280;50493;50.970;10.082;2024-01-30T10:57:03;100597.88;;;5.08;55.13
64189;BME280;50493;50.970;10.082;2024-01-30T10:59:30;100594.81;;;5.73;55.61
64189;BME280;50493;50.970;10.082;2024-01-30T11:01:56;100596.81;;;5.90;55.27
64189;BME280;50493;50.970;10.082;2024-01-30T11:04:22;100595.34;;;6.06;55.46
64189;BME280;50493;50.970;10.082;2024-01-30T11:06:49;100593.72;;;6.11;54.39
64189;BME280;50493;50.970;10.082;2024-01-30T11:09:17;100584.28;;;5.64;55.41
64189;BME280;50493;50.970;10.082;2024-01-30T11:11:51;100586.84;;;6.15;55.29
64189;BME280;50493;50.970;10.082;2024-01-30T11:14:23;100585.69;;;6.54;54.52
64189;BME280;50493;50.970;10.082;2024-01-30T11:16:49;100579.84;;;6.69;54.40
64189;BME280;50493;50.970;10.082;2024-01-30T11:19:14;100564.59;;;6.97;54.03
64189;BME280;50493;50.970;10.082;2024-01-30T11:21:41;100556.19;;;7.19;52.79
64189;BME280;50493;50.970;10.082;2024-01-30T11:24:07;100551.97;;;7.32;51.89
64189;BME280;50493;50.970;10.082;2024-01-30T11:26:33;100552.06;;;7.38;51.73
64189;BME280;50493;50.970;10.082;2024-01-30T11:29:03;100556.47;;;7.47;51.08
64189;BME280;50493;50.970;10.082;2024-01-30T11:31:28;100548.66;;;7.45;52.01
64189;BME280;50493;50.970;10.082;2024-01-30T11:33:54;100550.50;;;7.53;50.60
64189;BME280;50493;50.970;10.082;2024-01-30T11:36:25;100548.00;;;7.67;51.96
64189;BME280;50493;50.970;10.082;2024-01-30T11:38:50;100543.84;;;7.89;50.43
64189;BME280;50493;50.970;10.082;2024-01-30T11:41:16;100541.28;;;7.92;51.60
64189;BME280;50493;50.970;10.082;2024-01-30T11:43:41;100535.34;;;8.13;51.05
64189;BME280;50493;50.970;10.082;2024-01-30T11:46:08;100532.78;;;8.21;49.74
64189;BME280;50493;50.970;10.082;2024-01-30T11:48:35;100523.25;;;8.23;49.64
64189;BME280;50493;50.970;10.082;2024-01-30T11:51:00;100537.22;;;8.37;48.92
64189;BME280;50493;50.970;10.082;2024-01-30T11:53:26;100538.91;;;8.26;48.72
64189;BME280;50493;50.970;10.082;2024-01-30T11:55:52;100530.28;;;8.36;48.27
64189;BME280;50493;50.970;10.082;2024-01-30T11:58:18;100526.69;;;8.16;49.30
64189;BME280;50493;50.970;10.082;2024-01-30T12:00:52;100533.78;;;8.38;48.49
64189;BME280;50493;50.970;10.082;2024-01-30T12:03:19;100523.34;;;8.41;48.93
64189;BME280;50493;50.970;10.082;2024-01-30T12:05:45;100522.50;;;8.39;49.07
64189;BME280;50493;50.970;10.082;2024-01-30T12:08:15;100517.22;;;8.32;48.11
64189;BME280;50493;50.970;10.082;2024-01-30T12:10:40;100520.78;;;8.48;48.83
64189;BME280;50493;50.970;10.082;2024-01-30T12:13:05;100511.19;;;8.37;48.58
64189;BME280;50493;50.970;10.082;2024-01-30T12:15:31;100514.69;;;8.42;49.16
64189;BME280;50493;50.970;10.082;2024-01-30T12:18:04;100512.06;;;8.39;49.76
64189;BME280;50493;50.970;10.082;2024-01-30T12:20:30;100510.34;;;8.44;50.02
64189;BME280;50493;50.970;10.082;2024-01-30T12:22:56;100505.97;;;8.40;49.63
64189;BME280;50493;50.970;10.082;2024-01-30T12:25:21;100507.78;;;8.54;48.68
64189;BME280;50493;50.970;10.082;2024-01-30T12:27:49;100514.78;;;8.66;49.39
64189;BME280;50493;50.970;10.082;2024-01-30T12:30:16;100513.06;;;8.68;49.02
64189;BME280;50493;50.970;10.082;2024-01-30T12:32:42;100509.56;;;8.70;49.34
64189;BME280;50493;50.970;10.082;2024-01-30T12:35:09;100496.66;;;8.93;48.45
64189;BME280;50493;50.970;10.082;2024-01-30T12:37:36;100504.53;;;9.04;49.46
64189;BME280;50493;50.970;10.082;2024-01-30T12:40:02;100507.16;;;9.15;49.26
64189;BME280;50493;50.970;10.082;2024-01-30T12:42:28;100504.59;;;9.51;47.29